AirNav   Air Wisconsin Airman Trainee
 
 718 users online  

68S Davenport Airport
Davenport, Washington, USA

GOING TO DAVENPORT?


FAA INFORMATION EFFECTIVE 28 FEBRUARY 2019

Location

FAA Identifier: 68S
Lat/Long: 47-39-12.8000N / 118-10-07.6000W
47-39.213333N / 118-10.126667W
47.6535556 / -118.1687778
(estimated)
Elevation: 2426.9 ft. / 739.7 m (surveyed)
Variation: 20E (1985)
From city: 1 mile W of DAVENPORT, WA
Time zone: UTC -8 (UTC -7 during Daylight Saving Time)
Zip code: 99122

Airport Operations

Airport use: Open to the public
Activation date: 12/1945
Control tower: no
ARTCC: SEATTLE CENTER
FSS: SEATTLE FLIGHT SERVICE STATION
NOTAMs facility: SEA (NOTAM-D service available)
Attendance: ON CALL
Wind indicator: lighted
Segmented circle: no
Beacon: white-green (lighted land airport)
Operates sunset to sunrise.

Airport Communications

CTAF: 122.9

Nearby radio navigation aids

VOR radial/distance  VOR name  Freq  Var
GEGr263/22.6SPOKANE VORTAC115.5021E

 
NDB name  Hdg/Dist  Freq  Var  ID
DEER PARK222/35.436516EDPY -.. .--. -.--

Airport Services

Fuel available: 100LL
FUEL 24 HR CREDIT CARD SVC AVBL.
Parking: tiedowns
Airframe service: NONE
Bottled oxygen: NONE
Bulk oxygen: NONE

Runway Information

Runway 5/23

Dimensions: 2740 x 50 ft. / 835 x 15 m
Surface: asphalt, in fair condition
Runway edge lights: medium intensity
RUNWAY 5  RUNWAY 23
Latitude: 47-39.112307N47-39.241388N
Longitude: 118-10.481748W118-09.842680W
Elevation: 2417.8 ft.2418.1 ft.
Traffic pattern: leftright
Runway heading: 053 magnetic, 073 true233 magnetic, 253 true
Markings: basic, in fair conditionbasic, in fair condition
Touchdown point: yes, no lightsyes, no lights
Obstructions: none14 ft. trees, 804 ft. from runway, 43:1 slope to clear

Runway 3/21

Dimensions: 2271 x 45 ft. / 692 x 14 m
Surface: gravel, in fair condition
RY 03/21 VERY SOFT IN SPRING.
Runway edge markings: 03/21 NOT MKD.
RUNWAY 3  RUNWAY 21
Latitude: 47-39.150795N47-39.362133N
Longitude: 118-10.311900W118-09.855998W
Elevation: 2421.1 ft.2410.7 ft.
Gradient: 0.5% UP
Traffic pattern: leftright
Runway heading: 036 magnetic, 056 true216 magnetic, 236 true
Touchdown point: yes, no lightsyes, no lights
Obstructions: 50 ft. trees, 1300 ft. from runway, 26 ft. both sides of centerline, 26:1 slope to clear35 ft. trees, 625 ft. from runway, 84 ft. right of centerline, 17:1 slope to clear

Airport Ownership and Management from official FAA records

Ownership: Publicly-owned
Owner: CITY OF DAVENPORT
PO BOX 26
DAVENPORT, WA 99122
Phone 509-725-4352
Manager: STEVE GOEMMEL
P.O. BOX 26
DAVENPORT, WA 99122
Phone 509-725-4352

Airport Operational Statistics

Aircraft based on the field: 11
Single engine airplanes: 9
Ultralights: 2
    
Aircraft operations: avg 134/week *
71% local general aviation
29% transient general aviation
* for 12-month period ending 31 December 2015

Additional Remarks

MON-FRI 8:00 AM TO 5:00 PM, CALL OFFICE NUMBER, 509-725-4352. AFTER HOURS CALL 509-721-0069.

Instrument Procedures

There are no published instrument procedures at 68S.

Some nearby airports with instrument procedures:

KSKA - Fairchild Air Force Base (21 nm E)
2S8 - Wilbur Airport (24 nm W)
KGEG - Spokane International Airport (26 nm E)
KSFF - Felts Field Airport (34 nm E)
KDEW - Deer Park Airport (35 nm NE)
 
Loc | Ops | Rwys | IFR | FBO | Links
Com | Nav | Svcs | Stats | Notes
Area around 68S (Davenport Airport)
 
Road maps at: MapQuest Bing Google
 
Aerial photo
WARNING: Photo may not be current or correct
Aerial photo of 68S (Davenport Airport)
Photo by David Wyatt
Photo taken 22-Jun-2007
looking northeast down runway 5

Do you have a better or more recent aerial photo of Davenport Airport that you would like to share? If so, please send us your photo.

 
Sectional chart

 
Airport distance calculator
Flying to Davenport Airport? Find the distance to fly.

From to 68S

Sunrise and sunset
Times for 26-Mar-2019
 Local
(UTC-7)
 Zulu
(UTC)
Morning civil twilight06:1313:13
Sunrise06:4413:44
Sunset19:1302:13
Evening civil twilight19:4402:44

Current date and time
Zulu (UTC)  27-Mar-2019 03:48:47
Local (UTC-7)  26-Mar-2019 20:48:47
 
METAR
KSKA 
21nm E 
270258Z 20003KT 10SM SCT220 07/M03 A2999 RMK AO2A SLP171 T00691028 53002 $
KGEG 
26nm E 
270253Z 19005KT 10SM FEW060 FEW140 BKN190 08/M02 A3000 RMK AO2 SLP168 T00781017 53002
KSFF 
34nm E 
270253Z 00000KT 10SM CLR 07/M02 A3001 RMK AO2 SLP167 T00721017 53003
KDEW 
35nm NE 
270253Z AUTO 21007KT 10SM 07/M04 A2999 RMK AO2 SLP168 T00671039 53003 $
TAF
KSKA 
21nm E 
261900Z 2619/2801 19012KT 9999 BKN025 BKN200 610358 QNH2997INS BECMG 2702/2703 21009KT 9999 FEW020 BKN200 QNH2995INS WND 06006KT AFT 2709 BECMG 2717/2718 06009KT 9999 BKN025 BKN100 620509 QNH2986INS TX11/2700Z TN00/2712Z
KGEG 
26nm E 
261957Z 2620/2718 25012KT P6SM BKN035 BKN200 FM270300 19005KT P6SM FEW250 FM271000 07006KT P6SM SCT250
NOTAMs
Click for the latest NOTAMs
NOTAMs are issued by the DoD/FAA and will open in a separate window not controlled by AirNav.

 

 
 

FBO, Fuel Providers, and Aircraft Ground Support

  
 Business Name 
 
 Contact 
 
 Services / Description 
 
Fuel Prices
 
Comments
  
 Davenport Municipal Airport
509-725-4352
509-725-0152
[email]
Aviation fuel, Aircraft parking (ramp or tiedown), Hangar leasing / sales, Courtesy transportation, Pilots lounge / snooze room, Public telephone, Computerized weather, ...
 
Courtesy car  
 
More info about Davenport Municipal Airport
Ascent
100LL
SS $5.25 
 Updated 20-Mar-2019
 
   write
SS=Self service
Update Fuel Prices
 

Would you like to see your business listed on this page?

 If your business provides an interesting product or service to pilots, flight crews, aircraft, or users of the Davenport Airport, you should consider listing it here.  To start the listing process, click on the button below
 
Add a business
 

Other Pages about Davenport Airport

Update a link
 
Copyright © AirNav, LLC. All rights reserved. Privacy Policy  Contact